Overview Statistics Trail Chart Weather Telemetry Raw packets
 

This is the latest recevied weather packets stored in our database for station/object K5OLV. If no packets are shown the sender has not sent any weather packets the latest 10 day(s).

<< 10 11 12 13 14 15 16 >>
Time Temp. Humidity Pressure Rain* Wind** Luminosity Snow
1788542237 34.44° C 57% 1016.5 hPa 0 mm - 727 W/m² -
1788541932 32.78° C 58% 1016.4 hPa 0 mm - 271 W/m² -
1788541629 32.78° C 60% 1016.7 hPa 0 mm - 710 W/m² -
1788541344 32.22° C 60% 1016.6 hPa 0 mm - 642 W/m² -
1788541023 32.22° C 62% 1016.5 hPa 0 mm - 679 W/m² -
1788540723 31.67° C 62% 1016.6 hPa 0 mm - 688 W/m² -
1788540418 32.22° C 62% 1016.8 hPa 0 mm - 711 W/m² -
1788540112 31.11° C 67% 1017 hPa 0 mm - 704 W/m² -
1788539809 31.11° C 68% 1016.8 hPa 0 mm - 640 W/m² -
1788539504 31.11° C 67% 1016.7 hPa 0 mm - 655 W/m² -
1788539203 31.11° C 66% 1016.8 hPa 0 mm - 721 W/m² -
1788538898 31.11° C 66% 1016.8 hPa 0 mm - 701 W/m² -
1788538593 30.56° C 67% 1017 hPa 0 mm - 701 W/m² -
1788538288 30.56° C 71% 1017 hPa 0 mm - 695 W/m² -
1788537984 30° C 71% 1017 hPa 0 mm - 676 W/m² -
1788537680 30° C 72% 1016.9 hPa 0 mm - 694 W/m² -
1788537375 29.44° C 73% 1017 hPa 0 mm - 710 W/m² -
1788537068 30° C 72% 1017.2 hPa 0 mm - 727 W/m² -
1788536762 30° C 72% 1017.1 hPa 0 mm - 694 W/m² -
1788536457 30.56° C 73% 1017.1 hPa 0 mm - 698 W/m² -
1788536156 30° C 73% 1017.1 hPa 0 mm - 735 W/m² -
1788535853 29.44° C 73% 1016.9 hPa 0 mm - 660 W/m² -
1788535548 29.44° C 73% 1016.9 hPa 0 mm - 652 W/m² -
1788535243 29.44° C 72% 1017.1 hPa 0 mm - 663 W/m² -
1788534938 29.44° C 73% 1016.8 hPa 0 mm - 645 W/m² -

* Rain latest hour (hover to see other rain measurements)
** Current wind speed in m/s (hover to see current wind gust speed)